Eastern Lake Erie: Past 24 Hour Conditions

 

Gore Bay-Manitoulin Airport

01:00 AM EDT 24 April 2014
This table is a summary of hourly weather conditions for the past 24 hours.
Date / Time
(EDT)
Wind(knots) Conditions Visibility(km) Pressure(kPa) Air tempC) Relative humidity(%) Dew pointC) Wind Chill
24 April 2014
1:00 SSW 2 Clear 16 102.0 -1 83 -4 -2
0:00 E 2 Clear 16 102.0 -1 81 -4 -3
23 April 2014
23:00 WSW 4 Clear 16 102.0 -1 79 -4 -4
22:00 W 6 Clear 16 102.0 2 67 -4 *
21:00 NW 6 Clear 16 101.9 4 52 -5 *
20:00 WNW 9 gust 16 Sunny 16 101.9 6 42 -6 *
19:00 WNW 12 gust 18 Sunny 16 101.9 7 39 -6 *
18:00 WNW 8 Sunny 16 101.9 9 30 -8 *
17:00 WNW 10 Sunny 16 101.8 9 25 -10 *
16:00 WNW 11 Sunny 16 101.8 9 26 -10 *
15:00 WNW 11 Sunny 16 101.9 8 27 -10 *
14:00 WNW 10 gust 16 Sunny 16 101.9 7 29 -10 *
13:00 NW 7 Sunny 16 101.9 6 30 -10 *
12:00 N 9 gust 15 Sunny 16 101.9 5 29 -12 *
11:00 NNW 8 Sunny 16 101.9 3 35 -11 *
10:00 N 10 gust 15 Sunny 16 101.9 2 33 -13 *
9:00 N 11 gust 16 Sunny 16 101.9 1 43 -11 *
8:00 N 11 gust 16 Sunny 16 101.9 0 47 -10 -5
7:00 N 11 Sunny 16 101.8 -1 59 -8 -6
6:00 NNW 9 gust 15 Clear 16 101.7 -1 66 -6 -5
5:00 N 12 Mainly Clear 16 101.6 0 70 -5 *
4:00 N 12 Mostly Cloudy 16 101.5 1 69 -4 *
3:00 N 10 gust 15 Cloudy 16 101.4 2 67 -4 *
2:00 N 10 Cloudy 16 101.4 2 69 -3 *
1:00 N 10 gust 16 Cloudy 16 101.4 2 73 -2 *
 
Map of Great Lakes - Lake Erie and Lake Ontario marine weather areas Egbert N Huron - 45003 W Erie - 45005 S Huron - 45008 Lake Ontario - 45012 Port Stanley - 45132 Prince Edward Point - 45135 Georgian Bay - 45137 Grimsby - 45139 Port Colborne - 45142 South Georgian Bay - 45143 Lake St Clair - 45147 South Lake Huron - 45149 Lake Simcoe - 45151 Lake Nipissing - 45152 North Channel - 45154 Ajax - 45159 Sault Ste. Marie Airport Greater Sudbury Airport North Bay Airport Gore Bay-Manitoulin Airport Great Duck Island Brockville Grenadier Island Kemptville Kingston Airport Collingwood Lagoon City Muskoka Airport Parry Sound Harbour Lake Simcoe Regional Airport Wiarton Airport Goderich Sarnia Chris Hadfield Airport Tobermory Harrow AAFC Port Weller St. Catharines Airport Southeast Shoal Vineland Station Welland-Pelham Windsor Airport Burlington Lift Bridge Cobourg Hamilton Munro Int'l Airport Oshawa Municipal Airport Point Petre Toronto City Centre Airport Toronto Pearson Int'l Airport CFB Trenton Peterborough Municipal Airport Killarney Western Islands CFB Borden Cove Island Long Point Port Colborne Erieau Point Pelee Toronto Buttonville Municipal Airport
Legend: buoyBuoy land stationLand Station » US Marine Weather